Fire Weather Observation
Issued by NWS Grand Junction, CO

Home | Current Version | Previous Version | Graphics & Text | Print | Product List | Glossary On
Versions: 1 2 3 4 5 6 7 8 9 10 11 12 13 14 15 16 17 18 19 20 21 22 23 24 25 26 27 28 29 30 31 32
000
SHUS65 KGJT 182018
FWOGJT

DAILY FIRE WEATHER OBSERVATION
NATIONAL WEATHER SERVICE GRAND JUNCTION CO
212 PM MDT MON JUL 18 2016

STATE OF THE WEATHER (W)               3
DRY BULB TEMPERATURE                   81   DEGREES FAHRENHEIT
RELATIVE HUMIDITY (RH)                 33   PERCENT
LIGHTNING ACTIVITY LEVEL
  (LAL - MIDNIGHT TO 2 PM)             1
WIND DIRECTION                         360  DEGREES (C IF CALM)
WIND SPEED                             14   MPH
MAX TEMP (2 PM - 2 PM)                 100  DEGREES FAHRENHEIT
MIN TEMP (2 PM - 2 PM)                 75   DEGREES FAHRENHEIT
MAX RH (2 PM - 2 PM)                   37   PERCENT
MIN RH (2 PM - 2 PM)                   7    PERCENT
PCPN DURATION                          0.7  HOURS
PCPN AMT (2 PM - 2 PM)                 T    INCHES
LAL (2 PM - 2 PM)                      2

$$

METAR KGJT 181953Z 34012KT 10SM FEW080 OVC100 27/09 A3027 RMK
      AO2 SLP170 VCSH T02720094



USA.gov is the U.S. government's official web portal to all federal, state and local government web resources and services.